Time;durP1;ratioP1;P1;durP2;ratioP2;P2;SDS_P1;SDS_P2;PMS_P1;PMS_P2;Temp;Humidity;BMP_temperature;BMP_pressure;BME280_temperature;BME280_humidity;BME280_pressure;Samples;Min_cycle;Max_cycle;Signal;HPM_P1;HPM_P2
2022/01/23 00:01:10;;;;;;;18.88;3.53;;;;;;;;;;5040617;28;20053;-41
2022/01/23 00:03:44;;;;;;;25.83;3.83;;;;;;;;;;5041276;28;20040;-44
2022/01/23 00:06:11;;;;;;;44.58;5.15;;;;;;;;;;5041156;28;20068;-43
2022/01/23 00:08:38;;;;;;;34.30;4.18;;;;;;;;;;5036896;28;20033;-43
2022/01/23 00:11:07;;;;;;;29.10;3.30;;;;;;;;;;5042809;28;20031;-43
2022/01/23 00:17:16;;;;;;;42.88;4.05;;;;;;;;;;5043159;28;20135;-44
2022/01/23 00:19:11;;;;;;;34.20;5.38;;;;;;;;;;5043369;28;20052;-44
2022/01/23 00:21:40;;;;;;;34.17;4.30;;;;;;;;;;5043904;28;20036;-43
2022/01/23 00:32:07;;;;;;;13.40;2.17;;;;;;;;;;5041355;28;20063;-45
2022/01/23 00:34:35;;;;;;;23.00;2.45;;;;;;;;;;5034850;28;20143;-46
2022/01/23 00:37:02;;;;;;;27.83;3.60;;;;;;;;;;5037142;28;20155;-44
2022/01/23 00:39:29;;;;;;;35.13;7.95;;;;;;;;;;5046665;28;20390;-45
2022/01/23 00:41:56;;;;;;;20.05;5.50;;;;;;;;;;5042095;28;20108;-46
2022/01/23 00:44:23;;;;;;;18.45;4.20;;;;;;;;;;5041316;28;20044;-44
2022/01/23 00:46:51;;;;;;;17.02;3.53;;;;;;;;;;5040091;28;20025;-46
2022/01/23 00:49:27;;;;;;;14.68;2.50;;;;;;;;;;5048943;28;20045;-46
2022/01/23 00:51:56;;;;;;;24.05;2.88;;;;;;;;;;5044991;28;20556;-45
2022/01/23 00:54:24;;;;;;;20.48;3.00;;;;;;;;;;5023116;28;20037;-44
2022/01/23 00:56:52;;;;;;;23.00;2.65;;;;;;;;;;5043994;28;20097;-45
2022/01/23 00:59:19;;;;;;;14.18;2.20;;;;;;;;;;5044851;28;20041;-46
2022/01/23 01:01:46;;;;;;;19.08;3.38;;;;;;;;;;5045537;28;20510;-45
2022/01/23 01:04:13;;;;;;;16.75;4.95;;;;;;;;;;5046307;28;20086;-44
2022/01/23 01:06:40;;;;;;;24.20;5.95;;;;;;;;;;5042965;28;20113;-45
2022/01/23 01:09:09;;;;;;;35.63;5.18;;;;;;;;;;5036456;28;20026;-44
2022/01/23 01:11:56;;;;;;;13.98;3.83;;;;;;;;;;5036742;28;20032;-44
2022/01/23 01:14:33;;;;;;;25.77;6.18;;;;;;;;;;5036421;28;20724;-43
2022/01/23 01:17:16;;;;;;;26.30;8.18;;;;;;;;;;5038609;28;20087;-45
2022/01/23 01:30:58;;;;;;;18.05;7.40;;;;;;;;;;5045590;28;20465;-44
2022/01/23 01:36:03;;;;;;;13.07;6.50;;;;;;;;;;5047492;28;20442;-44
2022/01/23 01:38:31;;;;;;;16.80;7.07;;;;;;;;;;5038626;28;20044;-44
2022/01/23 01:40:58;;;;;;;17.45;7.30;;;;;;;;;;5043055;28;20491;-44
2022/01/23 01:43:25;;;;;;;18.17;8.18;;;;;;;;;;5046397;28;20059;-43
2022/01/23 01:45:54;;;;;;;14.95;7.95;;;;;;;;;;5045485;28;20029;-43
2022/01/23 01:48:24;;;;;;;25.95;7.45;;;;;;;;;;5043838;28;20093;-44
2022/01/23 01:50:54;;;;;;;18.48;7.75;;;;;;;;;;5043759;28;20032;-44
2022/01/23 01:53:21;;;;;;;26.77;7.45;;;;;;;;;;5043708;28;20651;-46
2022/01/23 01:55:52;;;;;;;28.35;6.55;;;;;;;;;;5058637;28;20783;-44
2022/01/23 02:01:12;;;;;;;20.67;5.00;;;;;;;;;;5044897;28;20497;-45
2022/01/23 02:09:15;;;;;;;25.38;8.60;;;;;;;;;;5031773;28;20067;-46
2022/01/23 02:14:32;;;;;;;18.98;4.90;;;;;;;;;;5026530;28;20037;-49
2022/01/23 02:52:54;;;;;;;6.45;1.00;;;;;;;;;;5044538;28;20048;-38
2022/01/23 02:55:28;;;;;;;6.78;0.90;;;;;;;;;;5043803;28;20071;-39
2022/01/23 02:58:01;;;;;;;8.20;1.35;;;;;;;;;;5046404;28;20049;-38
2022/01/23 03:00:35;;;;;;;10.75;1.30;;;;;;;;;;5041814;28;20139;-38
2022/01/23 03:03:11;;;;;;;9.05;1.23;;;;;;;;;;5041662;28;20033;-38
2022/01/23 03:05:40;;;;;;;7.75;1.38;;;;;;;;;;5038888;28;20079;-39
2022/01/23 03:08:27;;;;;;;5.32;1.77;;;;;;;;;;5032132;28;20124;-39
2022/01/23 03:11:02;;;;;;;10.95;3.10;;;;;;;;;;5036497;28;20041;-39
2022/01/23 03:29:50;;;;;;;10.20;6.13;;;;;;;;;;5000916;28;20037;-40
2022/01/23 03:32:35;;;;;;;9.15;6.00;;;;;;;;;;5031001;28;20053;-38
2022/01/23 03:35:04;;;;;;;6.07;4.05;;;;;;;;;;5049643;28;20044;-39
2022/01/23 03:37:31;;;;;;;7.88;3.67;;;;;;;;;;5032572;28;20483;-38
2022/01/23 03:39:59;;;;;;;6.10;3.65;;;;;;;;;;5050295;28;20033;-38
2022/01/23 03:42:27;;;;;;;9.68;3.53;;;;;;;;;;5049290;28;20479;-39
2022/01/23 03:47:42;;;;;;;4.35;2.95;;;;;;;;;;5050884;28;20501;-38
2022/01/23 03:50:11;;;;;;;3.83;2.10;;;;;;;;;;5050789;28;20025;-38
2022/01/23 03:52:38;;;;;;;3.78;2.08;;;;;;;;;;5047606;28;20032;-38
2022/01/23 03:55:06;;;;;;;5.88;1.90;;;;;;;;;;5053322;28;20028;-39
2022/01/23 03:57:34;;;;;;;3.47;1.40;;;;;;;;;;5048031;28;20099;-39
2022/01/23 04:00:02;;;;;;;7.72;1.30;;;;;;;;;;5040481;28;20049;-39
2022/01/23 04:02:29;;;;;;;4.13;1.45;;;;;;;;;;5041035;28;20032;-38
2022/01/23 04:04:56;;;;;;;2.08;1.40;;;;;;;;;;5058383;28;20032;-39
2022/01/23 04:07:27;;;;;;;5.20;1.27;;;;;;;;;;5055988;28;20107;-39
2022/01/23 04:09:54;;;;;;;6.00;1.50;;;;;;;;;;5064989;28;20434;-39
2022/01/23 04:12:37;;;;;;;11.98;1.83;;;;;;;;;;5056694;28;20147;-39
2022/01/23 04:20:39;;;;;;;2.03;1.30;;;;;;;;;;5052123;28;20513;-38
2022/01/23 04:34:30;;;;;;;2.13;1.30;;;;;;;;;;5051386;28;20098;-38
2022/01/23 04:45:34;;;;;;;3.90;1.90;;;;;;;;;;5051845;28;20083;-38
2022/01/23 05:02:01;;;;;;;6.55;3.15;;;;;;;;;;5052249;28;20063;-38
2022/01/23 05:04:31;;;;;;;11.38;3.20;;;;;;;;;;5051320;28;20044;-38
2022/01/23 05:09:26;;;;;;;4.15;2.00;;;;;;;;;;5052124;28;20053;-39
2022/01/23 05:11:57;;;;;;;4.55;1.65;;;;;;;;;;5051499;28;20095;-38
2022/01/23 05:14:33;;;;;;;7.72;2.45;;;;;;;;;;5051094;28;20078;-38
2022/01/23 05:17:01;;;;;;;6.28;2.05;;;;;;;;;;5051628;28;20036;-38
2022/01/23 05:19:28;;;;;;;6.72;1.70;;;;;;;;;;5033475;28;20481;-38
2022/01/23 05:24:34;;;;;;;8.50;2.15;;;;;;;;;;5051522;28;20025;-38
2022/01/23 05:27:02;;;;;;;5.07;1.73;;;;;;;;;;5052610;28;20060;-38
2022/01/23 05:29:29;;;;;;;5.80;1.73;;;;;;;;;;5052825;28;20021;-38
2022/01/23 05:31:56;;;;;;;2.10;1.80;;;;;;;;;;5051899;28;20135;-38
2022/01/23 05:34:24;;;;;;;6.60;2.50;;;;;;;;;;5060900;28;20044;-38
2022/01/23 05:36:52;;;;;;;3.47;2.00;;;;;;;;;;5056446;28;20044;-39
2022/01/23 05:39:21;;;;;;;3.85;2.70;;;;;;;;;;5071027;28;20115;-39
2022/01/23 05:41:58;;;;;;;5.97;2.50;;;;;;;;;;5053321;28;20028;-38
2022/01/23 05:44:25;;;;;;;4.85;2.30;;;;;;;;;;5071701;28;20020;-38
2022/01/23 05:46:52;;;;;;;4.90;2.50;;;;;;;;;;5070633;28;20540;-38
2022/01/23 05:49:19;;;;;;;4.38;2.15;;;;;;;;;;5071705;28;20186;-38
2022/01/23 05:51:46;;;;;;;5.50;2.85;;;;;;;;;;5070758;28;20032;-38
2022/01/23 05:54:13;;;;;;;3.53;2.20;;;;;;;;;;5071351;28;20023;-38
2022/01/23 05:56:40;;;;;;;5.55;2.45;;;;;;;;;;5071401;28;20141;-38
2022/01/23 05:59:07;;;;;;;4.88;2.45;;;;;;;;;;5070372;28;20137;-38
2022/01/23 06:01:34;;;;;;;5.25;2.45;;;;;;;;;;5070878;28;20088;-39
2022/01/23 06:04:01;;;;;;;5.60;2.80;;;;;;;;;;5071394;28;20047;-38
2022/01/23 06:06:28;;;;;;;6.60;2.65;;;;;;;;;;5073514;28;20031;-38
2022/01/23 06:08:55;;;;;;;4.28;2.85;;;;;;;;;;5074232;28;20553;-38
2022/01/23 06:11:22;;;;;;;5.95;2.63;;;;;;;;;;5057272;28;20028;-38
2022/01/23 06:13:49;;;;;;;5.88;3.40;;;;;;;;;;5074952;28;20028;-38
2022/01/23 06:16:16;;;;;;;4.90;3.30;;;;;;;;;;5073972;28;20091;-38
2022/01/23 06:18:45;;;;;;;5.57;3.50;;;;;;;;;;5074485;28;20036;-38
2022/01/23 06:21:16;;;;;;;8.90;3.80;;;;;;;;;;5074141;28;20033;-38
2022/01/23 06:23:43;;;;;;;7.88;3.60;;;;;;;;;;5075111;28;20052;-38
2022/01/23 06:26:10;;;;;;;7.57;3.70;;;;;;;;;;5074129;28;20029;-38
2022/01/23 06:28:41;;;;;;;8.20;4.00;;;;;;;;;;5074325;28;20096;-38
2022/01/23 06:31:09;;;;;;;5.63;3.92;;;;;;;;;;5074303;28;20502;-38
2022/01/23 06:33:36;;;;;;;6.03;4.03;;;;;;;;;;5073931;28;20017;-38
2022/01/23 06:36:04;;;;;;;7.55;4.28;;;;;;;;;;5074305;28;20453;-38
2022/01/23 06:38:31;;;;;;;6.50;4.55;;;;;;;;;;5073227;28;20029;-38
2022/01/23 06:40:58;;;;;;;6.35;4.80;;;;;;;;;;5190119;22;20103;-38
2022/01/23 06:43:25;;;;;;;4.93;4.32;;;;;;;;;;5039265;28;20025;-38
2022/01/23 06:45:52;;;;;;;10.60;5.63;;;;;;;;;;5034535;28;20132;-41
2022/01/23 06:48:19;;;;;;;8.68;5.10;;;;;;;;;;5033702;28;20490;-38
2022/01/23 06:50:46;;;;;;;7.75;4.70;;;;;;;;;;5033904;28;20027;-39
2022/01/23 06:53:13;;;;;;;7.53;4.85;;;;;;;;;;5032734;28;20021;-37
2022/01/23 06:55:40;;;;;;;11.63;4.90;;;;;;;;;;5033577;28;20045;-39
2022/01/23 06:58:07;;;;;;;7.25;4.00;;;;;;;;;;5032161;28;20103;-38
2022/01/23 07:00:35;;;;;;;5.03;3.60;;;;;;;;;;5033687;28;20041;-38
2022/01/23 07:03:02;;;;;;;6.32;3.17;;;;;;;;;;5033930;28;20108;-39
2022/01/23 07:05:29;;;;;;;5.97;3.40;;;;;;;;;;5033698;28;20482;-38
2022/01/23 07:07:56;;;;;;;3.88;3.30;;;;;;;;;;5033708;28;20490;-37
2022/01/23 07:10:25;;;;;;;4.65;3.38;;;;;;;;;;5033503;28;20033;-38
2022/01/23 07:12:52;;;;;;;4.78;3.42;;;;;;;;;;5033662;28;20399;-37
2022/01/23 07:15:19;;;;;;;10.55;3.45;;;;;;;;;;5033653;28;20029;-38
2022/01/23 07:17:46;;;;;;;4.45;3.40;;;;;;;;;;5033398;28;20029;-38
2022/01/23 07:20:13;;;;;;;6.30;3.67;;;;;;;;;;5033130;28;20021;-39
2022/01/23 07:22:40;;;;;;;5.18;4.10;;;;;;;;;;5033265;28;20032;-38
2022/01/23 07:25:07;;;;;;;6.93;3.92;;;;;;;;;;5033402;28;20021;-39
2022/01/23 07:27:40;;;;;;;10.20;4.43;;;;;;;;;;5033383;28;20021;-38
2022/01/23 07:30:21;;;;;;;;;;;;;;;;;;5033663;28;20087;-37
2022/01/23 07:32:48;;;;;;;8.25;5.75;;;;;;;;;;5033420;28;20425;-37
2022/01/23 07:35:15;;;;;;;11.00;6.60;;;;;;;;;;5033245;28;20449;-38
2022/01/23 07:37:42;;;;;;;23.23;6.72;;;;;;;;;;5033187;28;20413;-37
2022/01/23 07:40:09;;;;;;;11.88;6.55;;;;;;;;;;5032642;28;20462;-39
2022/01/23 07:42:39;;;;;;;10.00;5.75;;;;;;;;;;5033127;28;20044;-38
2022/01/23 07:45:06;;;;;;;12.20;7.78;;;;;;;;;;5032391;28;20029;-37
2022/01/23 07:47:33;;;;;;;15.32;8.10;;;;;;;;;;5032976;28;20056;-36
2022/01/23 07:50:02;;;;;;;15.55;7.75;;;;;;;;;;5032780;28;20025;-38
2022/01/23 07:52:30;;;;;;;13.95;8.50;;;;;;;;;;5032894;28;20159;-38
2022/01/23 07:54:57;;;;;;;18.33;8.85;;;;;;;;;;5032402;28;20475;-38
2022/01/23 07:57:24;;;;;;;13.55;8.02;;;;;;;;;;5031341;28;20041;-37
2022/01/23 07:59:51;;;;;;;17.75;9.02;;;;;;;;;;5032254;28;20033;-37
2022/01/23 08:02:18;;;;;;;14.48;8.40;;;;;;;;;;5032617;28;20052;-37
2022/01/23 08:04:45;;;;;;;13.80;7.40;;;;;;;;;;5032743;28;20034;-38
2022/01/23 08:07:30;;;;;;;8.80;5.50;;;;;;;;;;5032322;28;20029;-37
2022/01/23 08:09:58;;;;;;;4.95;3.85;;;;;;;;;;5032498;28;20033;-38
2022/01/23 08:12:25;;;;;;;4.93;3.05;;;;;;;;;;5032116;28;20033;-38
2022/01/23 08:14:53;;;;;;;3.67;2.67;;;;;;;;;;5031471;28;20025;-38
2022/01/23 08:17:24;;;;;;;2.20;1.90;;;;;;;;;;5032051;28;20029;-37
2022/01/23 08:19:52;;;;;;;2.20;1.60;;;;;;;;;;5032591;28;20080;-38
2022/01/23 08:22:20;;;;;;;2.55;1.48;;;;;;;;;;5032047;28;20029;-38
2022/01/23 08:24:47;;;;;;;3.10;1.00;;;;;;;;;;5032219;28;20026;-36
2022/01/23 08:27:15;;;;;;;3.72;1.13;;;;;;;;;;5032121;28;20040;-37
2022/01/23 08:29:42;;;;;;;3.28;0.95;;;;;;;;;;5031977;28;20022;-38
2022/01/23 08:32:10;;;;;;;3.45;0.90;;;;;;;;;;5032021;28;20031;-36
2022/01/23 08:34:37;;;;;;;3.00;0.98;;;;;;;;;;5032314;28;20535;-36
2022/01/23 08:37:05;;;;;;;6.68;1.00;;;;;;;;;;5032233;28;20036;-37
2022/01/23 08:39:35;;;;;;;4.45;0.80;;;;;;;;;;5031602;28;20120;-39
2022/01/23 08:42:03;;;;;;;4.95;0.60;;;;;;;;;;5031455;28;20072;-37
2022/01/23 08:44:31;;;;;;;9.70;0.80;;;;;;;;;;5031764;28;20045;-37
2022/01/23 08:46:59;;;;;;;2.15;0.75;;;;;;;;;;5031898;28;20066;-37
2022/01/23 08:49:27;;;;;;;6.25;0.75;;;;;;;;;;5031582;28;20060;-38
2022/01/23 08:51:55;;;;;;;0.93;0.45;;;;;;;;;;5032062;28;20539;-38
2022/01/23 08:54:23;;;;;;;5.18;0.80;;;;;;;;;;5031734;28;20036;-37
2022/01/23 08:56:50;;;;;;;2.83;0.60;;;;;;;;;;5031681;28;20083;-36
2022/01/23 08:59:17;;;;;;;3.22;0.50;;;;;;;;;;5031857;28;20124;-37
2022/01/23 09:01:44;;;;;;;4.18;0.75;;;;;;;;;;5031499;28;20479;-36
2022/01/23 09:04:15;;;;;;;2.67;0.52;;;;;;;;;;5032093;28;20075;-37
2022/01/23 09:06:45;;;;;;;5.13;0.70;;;;;;;;;;5031632;28;20442;-38
2022/01/23 09:09:19;;;;;;;2.20;0.45;;;;;;;;;;5031602;28;20026;-37
2022/01/23 09:14:27;;;;;;;8.70;0.80;;;;;;;;;;5032306;28;20487;-37
2022/01/23 09:16:54;;;;;;;14.93;0.90;;;;;;;;;;5031900;28;20040;-38
2022/01/23 09:19:23;;;;;;;3.92;0.50;;;;;;;;;;5028579;28;20499;-36
2022/01/23 09:21:50;;;;;;;6.63;0.80;;;;;;;;;;5013530;28;20387;-37
2022/01/23 09:24:18;;;;;;;9.38;0.60;;;;;;;;;;5031122;28;20034;-36
2022/01/23 09:26:51;;;;;;;7.10;0.70;;;;;;;;;;5031785;28;20479;-37
2022/01/23 09:29:28;;;;;;;3.97;0.52;;;;;;;;;;5031160;28;20025;-36
2022/01/23 09:31:55;;;;;;;4.07;0.60;;;;;;;;;;5030927;28;20041;-36
2022/01/23 09:34:23;;;;;;;2.75;0.60;;;;;;;;;;5031892;28;20076;-38
2022/01/23 09:36:51;;;;;;;7.30;0.65;;;;;;;;;;5031102;28;20028;-38
2022/01/23 09:39:20;;;;;;;9.63;0.85;;;;;;;;;;5031361;28;20034;-46
2022/01/23 09:41:49;;;;;;;3.13;0.63;;;;;;;;;;5034118;28;20100;-37
2022/01/23 09:44:20;;;;;;;6.78;0.60;;;;;;;;;;5017841;28;20041;-36
2022/01/23 09:46:48;;;;;;;6.57;0.70;;;;;;;;;;5034581;28;20072;-37
2022/01/23 09:49:16;;;;;;;13.05;0.77;;;;;;;;;;5035622;28;20395;-36
2022/01/23 09:51:44;;;;;;;3.38;0.60;;;;;;;;;;5035241;28;20585;-36
2022/01/23 09:54:12;;;;;;;1.90;0.52;;;;;;;;;;5035146;28;20049;-38
2022/01/23 09:56:41;;;;;;;3.25;0.65;;;;;;;;;;5035152;28;20483;-38
2022/01/23 09:59:12;;;;;;;2.17;0.70;;;;;;;;;;5034656;28;20072;-38
2022/01/23 10:01:41;;;;;;;3.53;0.73;;;;;;;;;;5034777;28;20502;-38
2022/01/23 10:04:09;;;;;;;8.70;1.58;;;;;;;;;;5034505;28;20351;-38
2022/01/23 10:06:36;;;;;;;10.68;1.15;;;;;;;;;;5034748;28;20040;-38
2022/01/23 10:09:06;;;;;;;9.38;0.75;;;;;;;;;;5035176;28;20486;-38
2022/01/23 10:11:38;;;;;;;2.60;0.80;;;;;;;;;;5033885;28;20045;-37
2022/01/23 10:14:05;;;;;;;2.22;0.93;;;;;;;;;;5034991;28;20041;-38
2022/01/23 10:16:33;;;;;;;12.75;0.90;;;;;;;;;;5034311;28;20025;-38
2022/01/23 10:19:01;;;;;;;3.75;0.60;;;;;;;;;;5034561;28;20135;-38
2022/01/23 10:21:30;;;;;;;5.78;0.60;;;;;;;;;;5034505;28;20033;-37
2022/01/23 10:23:57;;;;;;;2.55;0.55;;;;;;;;;;5016298;28;20030;-38
2022/01/23 10:26:42;;;;;;;5.78;0.60;;;;;;;;;;5034893;28;20394;-36
2022/01/23 10:29:17;;;;;;;1.98;0.57;;;;;;;;;;5033850;28;20401;-37
2022/01/23 10:32:02;;;;;;;1.33;0.60;;;;;;;;;;5034678;28;20032;-38
2022/01/23 10:34:49;;;;;;;8.77;0.82;;;;;;;;;;5034193;28;20044;-38
2022/01/23 10:37:35;;;;;;;5.90;0.60;;;;;;;;;;5033596;28;20034;-37
2022/01/23 10:40:10;;;;;;;2.75;0.60;;;;;;;;;;5034222;28;20106;-38
2022/01/23 10:47:56;;;;;;;2.60;1.13;;;;;;;;;;5034436;28;20111;-37
2022/01/23 10:50:24;;;;;;;1.60;0.60;;;;;;;;;;5033377;28;20040;-36
2022/01/23 10:52:51;;;;;;;5.82;0.70;;;;;;;;;;5034318;28;20110;-37
2022/01/23 10:55:21;;;;;;;5.70;0.75;;;;;;;;;;5033609;28;20034;-38
2022/01/23 10:57:51;;;;;;;3.58;0.70;;;;;;;;;;5033851;28;20022;-38
2022/01/23 11:00:21;;;;;;;1.95;0.60;;;;;;;;;;5033898;28;20112;-36
2022/01/23 11:02:48;;;;;;;3.13;0.60;;;;;;;;;;5033376;28;20036;-38
2022/01/23 11:05:19;;;;;;;4.40;0.70;;;;;;;;;;5034201;28;20108;-38
2022/01/23 11:07:50;;;;;;;1.23;0.40;;;;;;;;;;5034029;28;20041;-38
2022/01/23 11:10:18;;;;;;;7.95;0.50;;;;;;;;;;5033206;28;20546;-37
2022/01/23 11:18:09;;;;;;;2.55;0.57;;;;;;;;;;5033269;28;20448;-38
2022/01/23 11:20:38;;;;;;;3.40;0.85;;;;;;;;;;5033442;28;20502;-36
2022/01/23 11:23:12;;;;;;;4.40;0.68;;;;;;;;;;5032948;28;20026;-36
2022/01/23 11:25:40;;;;;;;5.82;1.08;;;;;;;;;;5033310;28;20045;-37
2022/01/23 11:28:07;;;;;;;5.25;0.68;;;;;;;;;;5033506;28;20494;-36
2022/01/23 11:30:45;;;;;;;3.75;0.60;;;;;;;;;;5032629;28;20091;-36
2022/01/23 11:33:14;;;;;;;4.95;0.73;;;;;;;;;;5033245;28;20033;-38
2022/01/23 11:35:41;;;;;;;3.42;0.55;;;;;;;;;;5032767;28;20065;-36
2022/01/23 11:38:14;;;;;;;7.30;0.50;;;;;;;;;;5033100;28;20084;-37
2022/01/23 11:50:41;;;;;;;7.07;0.80;;;;;;;;;;5032478;28;20158;-36
2022/01/23 11:54:39;;;;;;;6.07;0.40;;;;;;;;;;5032688;28;20044;-39
2022/01/23 11:57:26;;;;;;;1.58;0.40;;;;;;;;;;5032980;28;20045;-38
2022/01/23 11:59:52;;;;;;;4.15;0.47;;;;;;;;;;5031272;28;20049;-38
2022/01/23 12:02:26;;;;;;;1.73;0.55;;;;;;;;;;5032664;28;20057;-38
2022/01/23 12:05:16;;;;;;;4.18;0.60;;;;;;;;;;5032891;28;20033;-38
2022/01/23 12:07:44;;;;;;;9.70;0.60;;;;;;;;;;5032547;28;20060;-38
2022/01/23 12:10:30;;;;;;;3.53;0.47;;;;;;;;;;5015072;28;20026;-38
2022/01/23 12:18:49;;;;;;;3.75;0.50;;;;;;;;;;4932203;29;20138;-37
2022/01/23 12:21:29;;;;;;;1.98;0.45;;;;;;;;;;4995499;28;20041;-39
2022/01/23 12:24:04;;;;;;;1.95;0.35;;;;;;;;;;5032286;28;20104;-39
2022/01/23 12:26:31;;;;;;;1.08;0.40;;;;;;;;;;5032458;28;20037;-38
2022/01/23 12:29:10;;;;;;;4.03;0.52;;;;;;;;;;5031855;28;20482;-37
2022/01/23 12:31:37;;;;;;;3.70;0.40;;;;;;;;;;5031582;28;20674;-38
2022/01/23 12:34:04;;;;;;;9.57;0.70;;;;;;;;;;5032082;28;20517;-37
2022/01/23 12:36:33;;;;;;;9.77;0.70;;;;;;;;;;5031733;28;20513;-38
2022/01/23 12:39:00;;;;;;;7.10;0.80;;;;;;;;;;5031481;28;20386;-38
2022/01/23 12:41:29;;;;;;;3.38;0.50;;;;;;;;;;5031477;28;20049;-38
2022/01/23 12:44:03;;;;;;;9.85;0.95;;;;;;;;;;5031948;28;20025;-39
2022/01/23 12:46:31;;;;;;;8.35;0.50;;;;;;;;;;5031945;28;20045;-37
2022/01/23 12:49:00;;;;;;;4.80;0.50;;;;;;;;;;5013181;28;20033;-38
2022/01/23 12:51:32;;;;;;;4.45;0.52;;;;;;;;;;5032065;28;20041;-38
2022/01/23 12:53:59;;;;;;;4.75;0.50;;;;;;;;;;5031464;28;20083;-38
2022/01/23 12:56:29;;;;;;;9.18;0.80;;;;;;;;;;5031816;28;20041;-37
2022/01/23 12:59:04;;;;;;;12.77;0.88;;;;;;;;;;5031873;28;20048;-37
2022/01/23 13:01:31;;;;;;;8.23;0.60;;;;;;;;;;5031112;28;20033;-38
2022/01/23 13:04:00;;;;;;;2.38;0.50;;;;;;;;;;5023018;28;20033;-37
2022/01/23 13:06:40;;;;;;;3.92;0.40;;;;;;;;;;5024222;28;20025;-37
2022/01/23 13:09:18;;;;;;;2.25;0.55;;;;;;;;;;5020512;28;20030;-38
2022/01/23 13:12:05;;;;;;;2.67;0.40;;;;;;;;;;5023366;28;20060;-41
2022/01/23 13:15:19;;;;;;;2.70;0.40;;;;;;;;;;5028896;28;20061;-40
2022/01/23 13:29:53;;;;;;;3.78;0.40;;;;;;;;;;5027255;28;20111;-40
2022/01/23 13:32:01;;;;;;;4.10;0.52;;;;;;;;;;5029090;28;20069;-40
2022/01/23 13:34:30;;;;;;;4.53;0.55;;;;;;;;;;5033471;28;20026;-40
2022/01/23 13:37:04;;;;;;;8.25;0.60;;;;;;;;;;5033172;28;20779;-39
2022/01/23 13:39:35;;;;;;;3.05;0.60;;;;;;;;;;5033018;28;20037;-41
2022/01/23 13:42:13;;;;;;;3.55;0.60;;;;;;;;;;5032543;28;20062;-40
2022/01/23 13:51:16;;;;;;;4.35;0.50;;;;;;;;;;5034094;28;20047;-39
2022/01/23 13:59:16;;;;;;;4.47;1.00;;;;;;;;;;5027995;28;20059;-40
2022/01/23 14:04:15;;;;;;;6.95;0.95;;;;;;;;;;5032769;28;20445;-41
2022/01/23 14:06:43;;;;;;;9.57;1.30;;;;;;;;;;5032427;28;20060;-39
2022/01/23 14:09:11;;;;;;;6.00;0.80;;;;;;;;;;5031793;28;20037;-40
2022/01/23 14:11:39;;;;;;;4.60;0.55;;;;;;;;;;5015753;28;20152;-42
2022/01/23 14:14:10;;;;;;;5.82;0.70;;;;;;;;;;5031877;28;20433;-42
2022/01/23 14:16:37;;;;;;;4.47;0.85;;;;;;;;;;5033222;28;20029;-40
2022/01/23 14:19:26;;;;;;;8.05;1.02;;;;;;;;;;5032813;28;20083;-40
2022/01/23 14:21:56;;;;;;;10.32;0.90;;;;;;;;;;5033073;28;20026;-40
2022/01/23 14:24:29;;;;;;;9.63;1.20;;;;;;;;;;5033550;28;20056;-40
2022/01/23 14:27:09;;;;;;;11.32;1.60;;;;;;;;;;5031316;28;20483;-41
2022/01/23 14:29:48;;;;;;;8.88;1.20;;;;;;;;;;5031592;28;20053;-39
2022/01/23 14:32:23;;;;;;;8.80;1.10;;;;;;;;;;5030812;28;20127;-41
2022/01/23 14:34:50;;;;;;;13.05;1.20;;;;;;;;;;5032825;28;20029;-41
2022/01/23 14:37:25;;;;;;;6.80;0.70;;;;;;;;;;5031703;28;20041;-40
2022/01/23 14:40:07;;;;;;;15.20;1.25;;;;;;;;;;5030280;28;20045;-42
2022/01/23 14:45:14;;;;;;;5.22;0.90;;;;;;;;;;4972827;28;20094;-36
2022/01/23 14:47:41;;;;;;;12.50;1.15;;;;;;;;;;5009026;28;20033;-36
2022/01/23 14:50:15;;;;;;;18.98;2.00;;;;;;;;;;5002782;28;20028;-37
2022/01/23 14:52:44;;;;;;;21.08;2.85;;;;;;;;;;5009171;28;20042;-36
2022/01/23 14:55:11;;;;;;;19.90;3.45;;;;;;;;;;5010611;28;20034;-36
2022/01/23 15:00:56;;;;;;;9.95;2.08;;;;;;;;;;5196562;23;20637;-43
2022/01/23 15:03:24;;;;;;;17.45;3.00;;;;;;;;;;5018907;28;20033;-40
2022/01/23 15:09:10;;;;;;;20.55;2.90;;;;;;;;;;5014074;28;20064;-41
2022/01/23 15:11:38;;;;;;;16.63;3.80;;;;;;;;;;5023180;28;20517;-40
2022/01/23 15:14:06;;;;;;;30.83;4.93;;;;;;;;;;5015541;28;20655;-39
2022/01/23 15:16:33;;;;;;;17.20;3.58;;;;;;;;;;5026565;28;20041;-38
2022/01/23 15:19:00;;;;;;;18.45;5.85;;;;;;;;;;5020275;28;20386;-43
2022/01/23 15:21:28;;;;;;;32.58;10.38;;;;;;;;;;5031139;28;20033;-41
2022/01/23 15:23:56;;;;;;;26.25;6.65;;;;;;;;;;5026883;28;20376;-41
2022/01/23 15:26:23;;;;;;;22.08;9.57;;;;;;;;;;5023718;28;20394;-40
2022/01/23 15:28:51;;;;;;;29.63;13.02;;;;;;;;;;5031165;28;20037;-40
2022/01/23 15:31:18;;;;;;;32.67;12.68;;;;;;;;;;5028007;28;20379;-40
2022/01/23 15:33:45;;;;;;;33.20;11.93;;;;;;;;;;5028536;28;20461;-40
2022/01/23 15:36:12;;;;;;;36.22;10.10;;;;;;;;;;5027920;28;20049;-39
2022/01/23 15:41:21;;;;;;;;;;;;;;;;;;5372666;22;20057;-36
2022/01/23 15:43:48;;;;;;;31.63;9.95;;;;;;;;;;5001016;28;19971;-37
2022/01/23 15:46:15;;;;;;;38.42;9.82;;;;;;;;;;5001668;28;20032;-36
2022/01/23 15:48:43;;;;;;;49.50;8.55;;;;;;;;;;5007784;28;20029;-36
2022/01/23 15:51:10;;;;;;;46.85;9.05;;;;;;;;;;4965644;28;20121;-36
2022/01/23 15:53:37;;;;;;;57.35;9.85;;;;;;;;;;5002785;28;20479;-35
2022/01/23 15:56:04;;;;;;;61.83;9.57;;;;;;;;;;5008558;28;20092;-35
2022/01/23 15:58:31;;;;;;;56.83;8.70;;;;;;;;;;5002357;28;20045;-35
2022/01/23 16:00:59;;;;;;;40.05;7.18;;;;;;;;;;5000128;28;20041;-35
2022/01/23 16:03:27;;;;;;;47.88;8.98;;;;;;;;;;5003255;28;20027;-35
2022/01/23 16:05:55;;;;;;;43.47;9.45;;;;;;;;;;5002155;28;20038;-36
2022/01/23 16:08:22;;;;;;;37.75;9.82;;;;;;;;;;4993351;28;20399;-36
2022/01/23 16:10:49;;;;;;;34.80;9.38;;;;;;;;;;5000067;28;20774;-36
2022/01/23 16:13:16;;;;;;;40.72;12.05;;;;;;;;;;5003060;28;20066;-35
2022/01/23 16:15:43;;;;;;;36.08;10.35;;;;;;;;;;4995116;28;20168;-35
2022/01/23 16:18:11;;;;;;;42.03;9.32;;;;;;;;;;4978301;28;20026;-36
2022/01/23 16:20:38;;;;;;;32.63;6.75;;;;;;;;;;4984583;28;20034;-36
2022/01/23 16:23:05;;;;;;;31.00;5.30;;;;;;;;;;5002998;28;20026;-36
2022/01/23 16:25:32;;;;;;;24.23;4.45;;;;;;;;;;5003735;28;20030;-36
2022/01/23 16:27:59;;;;;;;33.67;4.32;;;;;;;;;;5002988;28;20058;-36
2022/01/23 16:30:41;;;;;;;17.73;3.40;;;;;;;;;;4992225;28;20403;-36
2022/01/23 16:33:08;;;;;;;14.57;2.35;;;;;;;;;;5001587;28;20038;-35
2022/01/23 16:35:35;;;;;;;18.17;3.65;;;;;;;;;;5008439;28;20028;-36
2022/01/23 16:38:02;;;;;;;19.83;4.72;;;;;;;;;;5001857;28;20120;-38
2022/01/23 16:40:29;;;;;;;18.33;4.07;;;;;;;;;;4984986;28;20092;-38
2022/01/23 16:42:56;;;;;;;20.40;4.32;;;;;;;;;;5002137;28;20045;-39
2022/01/23 16:45:23;;;;;;;18.25;4.13;;;;;;;;;;4996901;28;20038;-38
2022/01/23 16:47:50;;;;;;;17.33;4.10;;;;;;;;;;5002425;28;20116;-38
2022/01/23 16:50:17;;;;;;;8.30;3.00;;;;;;;;;;4994155;28;20033;-38
2022/01/23 16:52:44;;;;;;;21.67;4.18;;;;;;;;;;5002519;28;20469;-40
2022/01/23 16:55:12;;;;;;;17.48;2.70;;;;;;;;;;5010221;28;20029;-40
2022/01/23 16:57:39;;;;;;;18.50;2.63;;;;;;;;;;5008517;28;20076;-41
2022/01/23 17:00:07;;;;;;;11.75;3.25;;;;;;;;;;5007944;28;20034;-43
2022/01/23 17:02:38;;;;;;;17.58;3.50;;;;;;;;;;5005979;28;20049;-44
2022/01/23 17:05:05;;;;;;;19.90;3.47;;;;;;;;;;5003182;28;20042;-41
2022/01/23 17:07:33;;;;;;;16.02;2.80;;;;;;;;;;5009606;28;20423;-41
2022/01/23 17:10:00;;;;;;;9.52;3.00;;;;;;;;;;5007086;28;20053;-41
2022/01/23 17:12:27;;;;;;;21.25;3.42;;;;;;;;;;4995303;28;20706;-40
2022/01/23 17:14:56;;;;;;;17.77;3.17;;;;;;;;;;4997845;28;20037;-40
2022/01/23 17:17:23;;;;;;;17.63;3.00;;;;;;;;;;4999265;28;20116;-41
2022/01/23 17:19:50;;;;;;;12.88;3.50;;;;;;;;;;4998771;28;20034;-41
2022/01/23 17:22:17;;;;;;;9.23;2.40;;;;;;;;;;5001242;28;20081;-40
2022/01/23 17:24:44;;;;;;;12.15;3.10;;;;;;;;;;5001546;28;20030;-40
2022/01/23 17:27:12;;;;;;;13.82;3.05;;;;;;;;;;4997412;28;20508;-41
2022/01/23 17:29:39;;;;;;;11.00;3.65;;;;;;;;;;5000239;28;20049;-40
2022/01/23 17:32:11;;;;;;;14.10;3.17;;;;;;;;;;5007336;28;20030;-41
2022/01/23 17:34:39;;;;;;;13.77;2.97;;;;;;;;;;5003778;28;20072;-40
2022/01/23 17:37:06;;;;;;;13.07;2.80;;;;;;;;;;5007137;28;20037;-41
2022/01/23 17:39:33;;;;;;;13.68;3.20;;;;;;;;;;5005250;28;20037;-40
2022/01/23 17:42:00;;;;;;;15.65;3.15;;;;;;;;;;5006992;28;20112;-40
2022/01/23 17:44:29;;;;;;;14.57;3.13;;;;;;;;;;4983130;28;20022;-41
2022/01/23 17:47:06;;;;;;;19.27;3.45;;;;;;;;;;5002068;28;20088;-41
2022/01/23 17:49:40;;;;;;;10.85;2.78;;;;;;;;;;4999910;28;20065;-40
2022/01/23 17:52:09;;;;;;;17.08;2.88;;;;;;;;;;4998777;28;20072;-40
2022/01/23 17:54:37;;;;;;;10.07;2.67;;;;;;;;;;4999379;28;20121;-40
2022/01/23 17:57:05;;;;;;;11.25;2.95;;;;;;;;;;5005009;28;20104;-41
2022/01/23 17:59:32;;;;;;;19.80;2.95;;;;;;;;;;4993436;28;20118;-40
2022/01/23 18:01:59;;;;;;;18.60;3.72;;;;;;;;;;4995555;28;20038;-43
2022/01/23 18:04:26;;;;;;;18.08;3.50;;;;;;;;;;5001559;28;20088;-40
2022/01/23 18:06:56;;;;;;;15.88;3.40;;;;;;;;;;4986945;28;20038;-40
2022/01/23 18:09:24;;;;;;;15.10;3.03;;;;;;;;;;5001967;28;20492;-39
2022/01/23 18:11:52;;;;;;;17.65;3.88;;;;;;;;;;5003323;28;20031;-39
2022/01/23 18:14:20;;;;;;;16.27;3.67;;;;;;;;;;5005145;28;20064;-39
2022/01/23 18:16:47;;;;;;;23.80;3.80;;;;;;;;;;5000067;28;20037;-39